Time;durP1;ratioP1;P1;durP2;ratioP2;P2;SDS_P1;SDS_P2;PMS_P1;PMS_P2;Temp;Humidity;BMP_temperature;BMP_pressure;BME280_temperature;BME280_humidity;BME280_pressure;Samples;Min_cycle;Max_cycle;Signal;HPM_P1;HPM_P2
2022/03/09 00:02:24;;;;;;;18.98;8.60;;;;;;;2.12;59.29;100198.09;4827060;29;20070;-63
2022/03/09 00:04:54;;;;;;;18.67;8.15;;;;;;;2.11;59.22;100206.47;4826803;29;20075;-63
2022/03/09 00:07:26;;;;;;;16.33;8.57;;;;;;;2.14;58.96;100212.47;4826974;29;20390;-63
2022/03/09 00:09:55;;;;;;;12.32;6.78;;;;;;;2.08;59.02;100192.09;4826859;29;20141;-63
2022/03/09 00:12:28;;;;;;;17.38;8.63;;;;;;;2.07;59.16;100190.34;4826389;29;20577;-63
2022/03/09 00:14:57;;;;;;;16.23;7.60;;;;;;;2.05;59.64;100202.03;4826090;29;20081;-64
2022/03/09 00:17:28;;;;;;;21.23;8.80;;;;;;;2.03;59.48;100208.66;4826584;29;20090;-63
2022/03/09 00:19:57;;;;;;;16.30;8.20;;;;;;;2.01;59.66;100210.25;4826235;29;20107;-63
2022/03/09 00:22:29;;;;;;;20.52;7.47;;;;;;;2.06;59.40;100208.78;4826257;29;20290;-63
2022/03/09 00:24:58;;;;;;;14.67;7.27;;;;;;;2.08;59.14;100211.38;4826496;29;20042;-63
2022/03/09 00:27:29;;;;;;;17.47;8.13;;;;;;;2.13;59.12;100204.88;4810177;29;20082;-63
2022/03/09 00:29:59;;;;;;;15.57;7.55;;;;;;;2.17;59.35;100199.16;4826609;29;20290;-63
2022/03/09 00:32:28;;;;;;;20.13;9.23;;;;;;;2.22;58.96;100198.53;4826196;29;20054;-63
2022/03/09 00:34:57;;;;;;;16.08;8.30;;;;;;;2.19;58.68;100195.91;4826817;29;20064;-63
2022/03/09 00:37:26;;;;;;;17.80;8.27;;;;;;;2.14;58.89;100202.41;4826332;29;20400;-63
2022/03/09 00:39:55;;;;;;;17.30;7.27;;;;;;;2.10;59.01;100200.56;4826291;29;20065;-63
2022/03/09 00:42:24;;;;;;;15.93;7.68;;;;;;;2.05;58.92;100202.03;4826160;29;20823;-63
2022/03/09 00:44:54;;;;;;;16.37;7.97;;;;;;;2.09;59.66;100200.50;4825984;29;20038;-63
2022/03/09 00:47:23;;;;;;;17.52;7.80;;;;;;;2.06;59.12;100203.75;4826143;29;20334;-63
2022/03/09 00:49:52;;;;;;;12.93;5.87;;;;;;;2.14;59.08;100197.34;4825861;29;20054;-63
2022/03/09 00:52:21;;;;;;;17.05;7.50;;;;;;;2.21;59.19;100199.31;4809566;29;20046;-63
2022/03/09 00:54:50;;;;;;;11.97;5.40;;;;;;;2.22;58.71;100201.06;4826040;29;20069;-63
2022/03/09 00:57:19;;;;;;;18.77;8.23;;;;;;;2.19;58.58;100195.91;4825766;29;20047;-63
2022/03/09 00:59:48;;;;;;;14.95;7.30;;;;;;;2.17;59.01;100192.47;4825708;29;20377;-63
2022/03/09 01:02:18;;;;;;;15.17;7.00;;;;;;;2.16;59.34;100194.94;4826189;29;20058;-63
2022/03/09 01:04:48;;;;;;;18.20;7.90;;;;;;;2.14;59.40;100191.47;4825655;29;20274;-64
2022/03/09 01:07:17;;;;;;;10.88;5.65;;;;;;;2.08;59.59;100187.06;4825551;29;20052;-63
2022/03/09 01:09:46;;;;;;;17.08;8.60;;;;;;;2.05;59.69;100184.41;4825525;29;20519;-63
2022/03/09 01:12:15;;;;;;;14.52;7.28;;;;;;;2.07;59.96;100197.03;4825587;29;20053;-63
2022/03/09 01:14:44;;;;;;;16.03;7.50;;;;;;;2.07;59.38;100185.31;4825503;29;20050;-64
2022/03/09 01:17:13;;;;;;;14.37;7.17;;;;;;;2.08;59.92;100182.03;4825686;29;20394;-63
2022/03/09 01:19:43;;;;;;;15.77;7.27;;;;;;;2.14;59.75;100182.25;4825361;29;20042;-63
2022/03/09 01:22:12;;;;;;;15.32;6.72;;;;;;;2.11;60.16;100172.09;4825511;29;20339;-63
2022/03/09 01:24:41;;;;;;;18.33;6.87;;;;;;;2.08;59.42;100163.53;4824996;29;20051;-63
2022/03/09 01:27:10;;;;;;;16.97;7.77;;;;;;;2.04;59.76;100163.41;4825000;29;20050;-63
2022/03/09 01:29:40;;;;;;;14.90;7.20;;;;;;;2.11;59.94;100167.06;4825328;29;20768;-63
2022/03/09 01:32:09;;;;;;;15.48;6.95;;;;;;;2.12;59.75;100158.69;4825097;29;20100;-63
2022/03/09 01:34:38;;;;;;;15.23;7.35;;;;;;;2.22;59.60;100173.38;4825456;29;20467;-63
2022/03/09 01:37:08;;;;;;;17.50;7.35;;;;;;;2.25;59.20;100173.50;4825433;29;20051;-63
2022/03/09 01:39:37;;;;;;;15.35;7.25;;;;;;;2.28;59.83;100175.28;4825467;29;20103;-63
2022/03/09 01:42:06;;;;;;;19.33;7.93;;;;;;;2.25;59.42;100176.00;4825000;29;20066;-63
2022/03/09 01:44:35;;;;;;;16.13;7.38;;;;;;;2.26;59.63;100177.72;4825318;29;20042;-63
2022/03/09 01:47:05;;;;;;;15.38;7.20;;;;;;;2.31;59.46;100186.31;4825343;29;20046;-63
2022/03/09 01:49:36;;;;;;;15.77;7.03;;;;;;;2.32;59.63;100183.00;4825299;29;20085;-63
2022/03/09 01:52:07;;;;;;;13.60;6.85;;;;;;;2.35;59.74;100178.06;4825462;29;20077;-63
2022/03/09 01:54:39;;;;;;;14.55;7.40;;;;;;;2.34;59.77;100171.34;4825150;29;20061;-63
2022/03/09 01:57:09;;;;;;;14.95;7.10;;;;;;;2.33;59.32;100174.63;4825210;29;20089;-63
2022/03/09 01:59:38;;;;;;;13.70;7.07;;;;;;;2.32;60.02;100177.97;4825457;29;20070;-63
2022/03/09 02:02:06;;;;;;;15.83;7.10;;;;;;;2.30;59.53;100178.72;4825144;29;20515;-63
2022/03/09 02:04:39;;;;;;;;;;;;;;;2.25;59.57;100181.06;4825035;29;20062;-63
2022/03/09 02:07:09;;;;;;;13.57;6.97;;;;;;;2.24;59.58;100183.50;4825037;29;19931;-63
2022/03/09 02:09:42;;;;;;;14.43;6.32;;;;;;;2.23;60.19;100181.78;4824778;29;20085;-63
2022/03/09 02:12:14;;;;;;;14.52;6.97;;;;;;;2.21;59.68;100184.22;4824931;29;20050;-63
2022/03/09 02:14:45;;;;;;;16.42;7.00;;;;;;;2.21;60.31;100189.25;4824508;29;20058;-63
2022/03/09 02:17:16;;;;;;;16.08;7.68;;;;;;;2.20;59.90;100187.56;4824979;29;20059;-63
2022/03/09 02:19:46;;;;;;;14.65;6.60;;;;;;;2.16;60.41;100184.84;4808754;29;20505;-63
2022/03/09 02:22:25;;;;;;;15.88;7.28;;;;;;;2.11;60.06;100187.19;4825432;29;20394;-63
2022/03/09 02:24:54;;;;;;;15.60;7.30;;;;;;;2.07;60.89;100175.25;4825149;29;20400;-63
2022/03/09 02:27:23;;;;;;;16.90;7.00;;;;;;;2.04;60.30;100187.72;4824875;29;20289;-63
2022/03/09 02:29:54;;;;;;;15.30;7.43;;;;;;;2.00;60.22;100188.38;4824848;29;20043;-63
2022/03/09 02:32:23;;;;;;;13.98;6.63;;;;;;;1.95;60.74;100182.31;4824477;29;20058;-63
2022/03/09 02:34:53;;;;;;;12.98;7.25;;;;;;;2.01;60.73;100192.63;4824398;29;20521;-63
2022/03/09 02:37:23;;;;;;;15.68;7.10;;;;;;;2.02;60.80;100176.72;4826972;29;20042;-64
2022/03/09 02:39:52;;;;;;;17.27;7.18;;;;;;;2.04;60.75;100180.16;4827973;29;20115;-63
2022/03/09 02:42:21;;;;;;;16.13;7.55;;;;;;;2.03;60.72;100175.94;4828210;29;20034;-63
2022/03/09 02:44:50;;;;;;;16.00;7.17;;;;;;;2.06;60.93;100178.59;4828075;29;20506;-63
2022/03/09 02:47:19;;;;;;;9.63;4.83;;;;;;;1.96;60.79;100176.50;4827831;29;20502;-63
2022/03/09 02:49:48;;;;;;;14.13;6.80;;;;;;;1.95;60.55;100174.75;4811916;29;20282;-64
2022/03/09 02:52:17;;;;;;;10.45;5.38;;;;;;;1.97;60.92;100180.69;4828022;29;20046;-64
2022/03/09 02:54:48;;;;;;;16.25;6.82;;;;;;;2.07;60.64;100180.28;4827807;29;20050;-63
2022/03/09 02:57:17;;;;;;;15.00;7.35;;;;;;;2.06;60.99;100178.59;4827948;29;20077;-63
2022/03/09 02:59:47;;;;;;;15.53;6.50;;;;;;;2.09;61.01;100176.16;4827574;29;20050;-63
2022/03/09 03:02:16;;;;;;;16.02;6.45;;;;;;;2.05;60.55;100176.84;4827829;29;20103;-63
2022/03/09 03:04:45;;;;;;;14.73;6.05;;;;;;;2.02;60.79;100181.75;4827529;29;20046;-63
2022/03/09 03:07:14;;;;;;;15.25;7.10;;;;;;;1.98;60.45;100177.41;4827724;29;20116;-63
2022/03/09 03:09:45;;;;;;;15.65;6.82;;;;;;;1.97;60.32;100185.75;4827505;29;20579;-63
2022/03/09 03:12:15;;;;;;;14.35;6.35;;;;;;;1.95;61.29;100182.31;4827377;29;20050;-63
2022/03/09 03:14:46;;;;;;;15.35;6.97;;;;;;;1.92;61.10;100184.72;4826942;29;20444;-63
2022/03/09 03:17:15;;;;;;;14.30;7.35;;;;;;;1.80;61.30;100185.03;4827480;29;20554;-63
2022/03/09 03:19:44;;;;;;;14.52;7.10;;;;;;;1.70;61.47;100188.00;4827785;29;20039;-63
2022/03/09 03:22:13;;;;;;;15.23;7.00;;;;;;;1.72;61.48;100190.56;4827200;29;20046;-63
2022/03/09 03:24:42;;;;;;;15.30;7.35;;;;;;;1.75;61.57;100180.63;4827131;29;20321;-63
2022/03/09 03:27:11;;;;;;;13.40;6.97;;;;;;;1.91;61.27;100178.81;4826979;29;20106;-63
2022/03/09 03:29:42;;;;;;;16.38;7.25;;;;;;;2.00;61.03;100179.19;4827394;29;20074;-63
2022/03/09 03:32:11;;;;;;;12.93;6.47;;;;;;;2.03;61.31;100183.50;4810908;29;20141;-63
2022/03/09 03:34:40;;;;;;;14.98;7.63;;;;;;;2.03;61.23;100183.50;4827101;29;20494;-63
2022/03/09 03:37:09;;;;;;;14.00;6.50;;;;;;;1.99;60.95;100176.63;4826831;29;20043;-63
2022/03/09 03:39:39;;;;;;;16.33;7.38;;;;;;;1.93;61.31;100161.25;4826944;29;20066;-63
2022/03/09 03:42:08;;;;;;;12.17;5.30;;;;;;;1.95;61.47;100179.78;4826875;29;20111;-63
2022/03/09 03:44:37;;;;;;;14.07;6.93;;;;;;;1.88;61.37;100175.31;4827164;29;20038;-63
2022/03/09 03:47:08;;;;;;;14.77;7.13;;;;;;;1.79;61.70;100177.44;4827317;29;20089;-63
2022/03/09 03:49:37;;;;;;;13.55;7.20;;;;;;;1.76;61.61;100177.31;4826509;29;20094;-63
2022/03/09 03:52:06;;;;;;;15.88;6.53;;;;;;;1.77;61.82;100174.00;4826753;29;20047;-63
2022/03/09 03:54:35;;;;;;;14.30;6.93;;;;;;;1.79;62.09;100172.41;4826620;29;20074;-63
2022/03/09 03:57:04;;;;;;;10.80;5.35;;;;;;;1.88;61.59;100172.78;4826902;29;20091;-63
2022/03/09 03:59:33;;;;;;;14.63;7.10;;;;;;;1.84;62.25;100175.97;4826910;29;20073;-63
2022/03/09 04:02:02;;;;;;;13.93;7.35;;;;;;;1.89;61.74;100177.91;4826582;29;20042;-63
2022/03/09 04:04:33;;;;;;;18.55;7.47;;;;;;;1.93;62.03;100176.34;4826527;29;20505;-63
2022/03/09 04:07:02;;;;;;;14.45;6.68;;;;;;;1.94;62.02;100173.06;4810506;29;20054;-63
2022/03/09 04:09:31;;;;;;;14.80;4.83;;;;;;;1.89;61.68;100177.03;4826496;29;20050;-63
2022/03/09 04:12:03;;;;;;;17.05;7.05;;;;;;;1.88;61.79;100182.84;4826421;29;20290;-63
2022/03/09 04:14:31;;;;;;;14.00;6.75;;;;;;;1.75;62.40;100171.41;4826304;29;20055;-64
2022/03/09 04:17:00;;;;;;;15.60;7.70;;;;;;;1.69;62.56;100187.91;4826557;29;20050;-63
2022/03/09 04:19:29;;;;;;;15.00;6.93;;;;;;;1.58;62.16;100186.59;4826650;29;20410;-63
2022/03/09 04:22:00;;;;;;;15.95;7.45;;;;;;;1.42;63.13;100184.22;4826762;29;20090;-63
2022/03/09 04:24:28;;;;;;;15.20;7.65;;;;;;;1.34;63.07;100192.28;4826564;29;20047;-63
2022/03/09 04:26:57;;;;;;;14.63;7.67;;;;;;;1.16;63.35;100191.47;4826496;29;20085;-63
2022/03/09 04:29:26;;;;;;;17.40;7.45;;;;;;;1.19;63.52;100196.66;4826365;29;20042;-63
2022/03/09 04:31:56;;;;;;;16.20;8.02;;;;;;;1.24;63.60;100197.72;4826455;29;20054;-63
2022/03/09 04:34:25;;;;;;;16.67;7.93;;;;;;;1.23;63.71;100190.94;4826491;29;20042;-63
2022/03/09 04:36:55;;;;;;;17.35;8.38;;;;;;;1.12;63.83;100198.81;4826023;29;20532;-63
2022/03/09 04:39:25;;;;;;;19.63;8.80;;;;;;;1.21;63.93;100197.56;4826250;29;20501;-63
2022/03/09 04:41:54;;;;;;;15.82;8.13;;;;;;;1.28;63.95;100192.03;4826051;29;20114;-63
2022/03/09 04:44:23;;;;;;;12.65;6.10;;;;;;;1.19;64.24;100201.69;4825944;29;20099;-63
2022/03/09 04:46:52;;;;;;;16.42;8.20;;;;;;;1.21;64.05;100195.06;4825845;29;20103;-63
2022/03/09 04:49:21;;;;;;;14.93;7.63;;;;;;;1.32;63.93;100198.91;4825729;29;20127;-63
2022/03/09 04:51:55;;;;;;;17.77;6.75;;;;;;;1.48;63.84;100192.03;4826394;29;20490;-64
2022/03/09 04:54:25;;;;;;;18.80;6.63;;;;;;;1.55;63.66;100191.50;4825703;29;20046;-63
2022/03/09 04:56:55;;;;;;;16.85;7.90;;;;;;;1.59;63.78;100184.13;4825990;29;20055;-63
2022/03/09 04:59:23;;;;;;;16.20;6.97;;;;;;;1.52;63.65;100191.34;4825295;29;20060;-63
2022/03/09 05:01:52;;;;;;;13.40;6.30;;;;;;;1.56;63.80;100193.22;4825057;29;20286;-64
2022/03/09 05:04:22;;;;;;;12.50;7.03;;;;;;;1.48;64.31;100199.56;4825902;29;20158;-62
2022/03/09 05:06:51;;;;;;;18.50;7.60;;;;;;;1.39;64.49;100194.16;4824442;29;20448;-63
2022/03/09 05:09:19;;;;;;;15.30;7.45;;;;;;;1.28;64.84;100201.22;4809117;29;20321;-63
2022/03/09 05:11:50;;;;;;;16.67;7.57;;;;;;;1.22;64.93;100211.84;4825528;29;20078;-64
2022/03/09 05:14:19;;;;;;;18.58;7.70;;;;;;;1.27;65.15;100207.03;4825467;29;20405;-64
2022/03/09 05:16:48;;;;;;;17.60;7.43;;;;;;;1.33;64.66;100213.19;4825768;29;20054;-63
2022/03/09 05:19:17;;;;;;;12.60;6.93;;;;;;;1.44;65.46;100207.78;4825608;29;20157;-63
2022/03/09 05:21:46;;;;;;;16.20;7.55;;;;;;;1.38;64.93;100202.47;4825362;29;20283;-63
2022/03/09 05:24:35;;;;;;;19.00;6.93;;;;;;;1.66;64.80;100210.41;4825797;29;20151;-63
2022/03/09 05:27:06;;;;;;;16.30;6.72;;;;;;;1.80;63.80;100205.16;4825552;29;20132;-63
2022/03/09 05:29:35;;;;;;;15.70;7.05;;;;;;;1.87;63.79;100203.78;4825228;29;20065;-63
2022/03/09 05:32:06;;;;;;;16.47;6.73;;;;;;;1.96;63.69;100206.69;4825235;29;20046;-63
2022/03/09 05:34:34;;;;;;;14.73;6.35;;;;;;;1.97;63.56;100208.38;4825440;29;20081;-63
2022/03/09 05:37:04;;;;;;;11.68;5.47;;;;;;;1.99;63.84;100210.16;4825180;29;20047;-63
2022/03/09 05:39:33;;;;;;;15.55;6.15;;;;;;;2.07;63.63;100205.47;4825320;29;20489;-63
2022/03/09 05:42:02;;;;;;;15.53;6.47;;;;;;;2.19;62.90;100205.09;4825055;29;20057;-63
2022/03/09 05:44:32;;;;;;;15.10;6.13;;;;;;;2.22;63.40;100206.09;4825073;29;20046;-63
2022/03/09 05:47:02;;;;;;;15.93;6.50;;;;;;;2.18;62.70;100193.31;4825661;29;20108;-63
2022/03/09 05:49:30;;;;;;;11.50;4.50;;;;;;;2.30;62.34;100214.84;4824969;29;20054;-63
2022/03/09 05:51:59;;;;;;;14.18;6.40;;;;;;;2.39;62.08;100222.75;4825250;29;20046;-63
2022/03/09 05:54:28;;;;;;;16.83;6.70;;;;;;;2.28;62.22;100206.34;4824919;29;20098;-63
2022/03/09 05:56:57;;;;;;;12.97;5.90;;;;;;;2.43;62.27;100231.28;4824902;29;20050;-63
2022/03/09 05:59:26;;;;;;;15.38;6.70;;;;;;;2.49;62.09;100237.44;4825582;29;20054;-63
2022/03/09 06:01:57;;;;;;;18.77;7.53;;;;;;;2.54;61.84;100230.91;4824770;29;20054;-63
2022/03/09 06:04:26;;;;;;;15.23;6.63;;;;;;;2.55;61.34;100232.63;4824821;29;20054;-64
2022/03/09 06:06:55;;;;;;;17.03;7.50;;;;;;;2.58;61.76;100237.81;4824942;29;20072;-63
2022/03/09 06:09:24;;;;;;;15.50;7.53;;;;;;;2.56;61.87;100229.31;4825053;29;20043;-63
2022/03/09 06:11:53;;;;;;;15.13;7.63;;;;;;;2.73;61.25;100243.41;4824539;29;20050;-63
2022/03/09 06:14:22;;;;;;;16.07;7.70;;;;;;;2.80;61.75;100248.72;4824788;29;20106;-63
2022/03/09 06:16:56;;;;;;;16.00;6.78;;;;;;;2.83;61.11;100243.81;4824577;29;20054;-63
2022/03/09 06:19:25;;;;;;;14.50;7.00;;;;;;;2.87;61.42;100253.19;4824671;29;20586;-63
2022/03/09 06:21:54;;;;;;;12.50;5.07;;;;;;;2.92;61.24;100259.28;4824665;29;20057;-63
2022/03/09 06:24:23;;;;;;;13.85;6.15;;;;;;;3.00;61.48;100252.88;4824736;29;20525;-63
2022/03/09 06:26:55;;;;;;;15.80;6.88;;;;;;;3.07;60.90;100249.78;4824620;29;20055;-63
2022/03/09 06:29:23;;;;;;;13.27;6.63;;;;;;;3.13;60.69;100245.81;4824699;29;20126;-63
2022/03/09 06:31:52;;;;;;;13.30;5.87;;;;;;;3.10;60.57;100235.63;4824740;29;20051;-63
2022/03/09 06:34:23;;;;;;;16.65;7.38;;;;;;;3.27;60.51;100246.34;4824717;29;20373;-63
2022/03/09 06:36:52;;;;;;;12.88;6.60;;;;;;;3.32;60.02;100249.88;4824640;29;20512;-63
2022/03/09 06:39:21;;;;;;;11.97;6.37;;;;;;;3.38;60.05;100257.69;4824987;29;20133;-63
2022/03/09 06:41:50;;;;;;;12.63;7.20;;;;;;;3.42;59.94;100254.47;4824424;29;20050;-63
2022/03/09 06:44:19;;;;;;;15.10;7.27;;;;;;;3.45;59.91;100259.66;4824632;29;20294;-63
2022/03/09 06:46:48;;;;;;;16.33;6.90;;;;;;;3.50;59.71;100263.19;4824201;29;20047;-63
2022/03/09 06:49:17;;;;;;;16.33;7.67;;;;;;;3.55;60.06;100261.66;4824302;29;20076;-63
2022/03/09 06:51:50;;;;;;;15.20;7.50;;;;;;;3.57;60.29;100255.03;4824548;29;20043;-63
2022/03/09 06:54:19;;;;;;;16.42;6.80;;;;;;;3.60;59.23;100252.59;4824166;29;20494;-63
2022/03/09 06:56:51;;;;;;;16.60;7.82;;;;;;;3.65;59.87;100258.69;4824386;29;20088;-63
2022/03/09 06:59:20;;;;;;;16.20;6.50;;;;;;;3.72;59.68;100250.53;4824512;29;20058;-63
2022/03/09 07:01:49;;;;;;;12.30;6.53;;;;;;;3.76;59.86;100247.31;4824193;29;20082;-63
2022/03/09 07:04:18;;;;;;;14.30;6.70;;;;;;;3.81;59.13;100240.78;4824216;29;20110;-63
2022/03/09 07:06:49;;;;;;;12.45;6.22;;;;;;;3.89;59.09;100236.81;4824381;29;20133;-63
2022/03/09 07:09:18;;;;;;;13.20;6.97;;;;;;;3.99;59.18;100248.09;4824623;29;20501;-63
2022/03/09 07:11:47;;;;;;;13.32;6.80;;;;;;;3.97;58.67;100245.53;4824429;29;20054;-63
2022/03/09 07:14:16;;;;;;;14.33;6.73;;;;;;;4.02;58.62;100246.56;4824060;29;20073;-63
2022/03/09 07:16:45;;;;;;;11.02;5.50;;;;;;;4.08;59.17;100248.41;4823854;29;20047;-63
2022/03/09 07:19:14;;;;;;;16.40;7.70;;;;;;;4.18;58.67;100244.53;4824234;29;20061;-63
2022/03/09 07:21:43;;;;;;;13.60;7.00;;;;;;;4.24;59.00;100254.84;4824616;29;20047;-63
2022/03/09 07:24:13;;;;;;;19.10;6.77;;;;;;;4.32;58.25;100248.41;4825381;29;20046;-63
2022/03/09 07:26:42;;;;;;;12.95;6.50;;;;;;;4.39;57.80;100245.25;4827607;29;20550;-64
2022/03/09 07:29:12;;;;;;;15.85;6.97;;;;;;;4.48;58.48;100245.56;4827259;29;20410;-63
2022/03/09 07:31:41;;;;;;;14.05;7.13;;;;;;;4.51;57.90;100243.97;4827643;29;20093;-63
2022/03/09 07:34:10;;;;;;;14.80;7.05;;;;;;;4.55;57.91;100250.00;4826883;29;20042;-63
2022/03/09 07:36:39;;;;;;;14.30;7.27;;;;;;;4.60;57.66;100243.44;4826843;29;20046;-63
2022/03/09 07:39:09;;;;;;;14.48;7.18;;;;;;;4.69;57.08;100238.66;4826817;29;20524;-63
2022/03/09 07:41:43;;;;;;;14.98;7.45;;;;;;;4.83;57.41;100247.53;4826797;29;20054;-63
2022/03/09 07:44:12;;;;;;;15.98;6.32;;;;;;;4.88;57.11;100245.13;4827397;29;20054;-63
2022/03/09 07:46:41;;;;;;;12.00;6.13;;;;;;;4.98;56.55;100242.06;4827015;29;20058;-63
2022/03/09 07:49:11;;;;;;;13.85;7.00;;;;;;;5.12;56.79;100241.69;4827364;29;20057;-63
2022/03/09 07:51:40;;;;;;;;;;;;;;;5.21;56.45;100236.03;4828194;29;20044;-63
2022/03/09 07:54:10;;;;;;;12.35;6.43;;;;;;;5.32;55.95;100220.38;4849259;29;19972;-63
2022/03/09 07:56:40;;;;;;;12.57;6.40;;;;;;;5.55;55.50;100217.59;4848611;29;20090;-63
2022/03/09 07:59:11;;;;;;;;;;;;;;;5.81;54.76;100232.69;4845554;29;20095;-63
2022/03/09 08:01:40;;;;;;;11.90;6.15;;;;;;;5.94;54.19;100218.72;4828821;29;19924;-63
2022/03/09 08:04:09;;;;;;;13.40;6.43;;;;;;;6.22;53.95;100226.19;4845183;29;20068;-63
2022/03/09 08:06:38;;;;;;;15.03;6.83;;;;;;;6.36;53.67;100235.00;4844855;29;20057;-63
2022/03/09 08:09:08;;;;;;;12.85;6.43;;;;;;;6.44;53.19;100228.47;4844504;29;20099;-63
2022/03/09 08:11:37;;;;;;;12.43;6.47;;;;;;;6.40;52.82;100236.81;4844994;29;20045;-64
2022/03/09 08:14:06;;;;;;;24.57;6.77;;;;;;;6.30;52.78;100232.34;4844449;29;20110;-63
2022/03/09 08:16:37;;;;;;;13.30;6.50;;;;;;;6.40;52.87;100231.75;4844466;29;20293;-63
2022/03/09 08:19:06;;;;;;;11.80;5.95;;;;;;;6.64;52.35;100237.41;4844596;29;20066;-63
2022/03/09 08:21:37;;;;;;;12.02;6.38;;;;;;;6.84;52.27;100239.56;4844700;29;20493;-63
2022/03/09 08:24:07;;;;;;;10.53;5.80;;;;;;;6.90;51.62;100239.69;4844877;29;20042;-64
2022/03/09 08:26:36;;;;;;;10.57;5.93;;;;;;;6.83;51.84;100240.38;4844690;29;20046;-63
2022/03/09 08:29:05;;;;;;;13.93;6.47;;;;;;;6.86;51.03;100237.91;4844665;29;20053;-63
2022/03/09 08:31:36;;;;;;;;;;;;;;;6.87;51.34;100239.59;4845061;29;20053;-63
2022/03/09 08:34:09;;;;;;;10.38;5.88;;;;;;;6.88;51.93;100232.03;4844128;29;19924;-64
2022/03/09 08:36:39;;;;;;;13.85;6.60;;;;;;;6.73;51.25;100234.22;4844293;29;20050;-63
2022/03/09 08:39:08;;;;;;;13.93;6.70;;;;;;;6.76;51.23;100226.69;4844110;29;20110;-63
2022/03/09 08:41:37;;;;;;;13.37;6.73;;;;;;;7.28;51.45;100233.75;4841210;29;20080;-64
2022/03/09 08:44:26;;;;;;;14.55;6.43;;;;;;;7.85;50.97;100237.47;4834057;29;20389;-64
2022/03/09 08:47:00;;;;;;;14.30;6.75;;;;;;;8.02;49.37;100225.94;4838033;29;20038;-64
2022/03/09 08:49:30;;;;;;;12.05;6.40;;;;;;;7.94;48.97;100224.94;4841912;29;20077;-64
2022/03/09 08:52:00;;;;;;;10.95;6.05;;;;;;;8.19;49.22;100233.88;4844067;29;20536;-63
2022/03/09 08:54:29;;;;;;;17.00;6.47;;;;;;;8.54;48.50;100234.50;4843823;29;20133;-64
2022/03/09 08:56:58;;;;;;;16.48;7.40;;;;;;;8.81;48.50;100228.97;4843791;29;20046;-63
2022/03/09 08:59:27;;;;;;;10.15;6.40;;;;;;;9.16;47.46;100228.66;4844080;29;20106;-64
2022/03/09 09:01:56;;;;;;;14.67;6.23;;;;;;;9.35;47.45;100222.97;4844183;29;20050;-63
2022/03/09 09:04:28;;;;;;;13.32;6.22;;;;;;;9.16;46.82;100227.81;4843659;29;20532;-64
2022/03/09 09:06:57;;;;;;;12.98;6.70;;;;;;;9.08;47.08;100224.28;4844078;29;20052;-64
2022/03/09 09:09:27;;;;;;;20.45;6.53;;;;;;;8.85;46.64;100220.56;4843577;29;20079;-64
2022/03/09 09:11:56;;;;;;;8.35;4.38;;;;;;;8.92;47.13;100218.13;4827526;29;20042;-64
2022/03/09 09:14:27;;;;;;;11.50;5.95;;;;;;;9.00;46.65;100221.63;4843904;29;20408;-64
2022/03/09 09:16:57;;;;;;;12.57;5.60;;;;;;;8.85;46.87;100220.56;4843603;29;20045;-64
2022/03/09 09:19:28;;;;;;;11.85;5.88;;;;;;;9.16;46.34;100223.56;4843576;29;20060;-65
2022/03/09 09:21:57;;;;;;;12.13;6.15;;;;;;;9.31;45.82;100213.56;4843658;29;20501;-64
2022/03/09 09:24:27;;;;;;;13.80;6.33;;;;;;;9.15;46.77;100226.94;4837058;29;20056;-65
2022/03/09 09:26:56;;;;;;;11.70;6.10;;;;;;;8.92;46.39;100225.78;4841374;29;20480;-64
2022/03/09 09:29:30;;;;;;;9.48;5.65;;;;;;;9.12;46.37;100219.25;4843390;29;20050;-64
2022/03/09 09:31:59;;;;;;;9.38;5.72;;;;;;;9.33;46.43;100222.06;4843590;29;20124;-64
2022/03/09 09:34:30;;;;;;;15.05;6.38;;;;;;;9.63;46.02;100230.94;4843236;29;20058;-64
2022/03/09 09:37:02;;;;;;;16.05;6.40;;;;;;;9.87;45.76;100231.22;4842932;29;20081;-65
2022/03/09 09:39:31;;;;;;;10.52;6.07;;;;;;;9.62;45.43;100224.16;4835035;29;20043;-64
2022/03/09 09:42:00;;;;;;;13.55;6.00;;;;;;;9.73;45.72;100222.56;4823927;29;20386;-64
2022/03/09 09:44:30;;;;;;;12.30;7.18;;;;;;;9.86;44.94;100226.97;4825062;29;20035;-64
2022/03/09 09:46:59;;;;;;;10.48;6.63;;;;;;;9.85;45.34;100222.69;4824705;29;20054;-64
2022/03/09 09:49:37;;;;;;;11.50;7.13;;;;;;;9.66;45.57;100220.78;4825385;29;20054;-64
2022/03/09 09:52:06;;;;;;;12.82;6.82;;;;;;;9.42;45.58;100227.31;4824894;29;20070;-63
2022/03/09 09:54:35;;;;;;;;;;;;;;;9.28;46.51;100226.28;4825355;29;20111;-64
2022/03/09 09:57:05;;;;;;;10.48;6.57;;;;;;;9.16;46.95;100218.47;4824994;29;19924;-64
2022/03/09 09:59:37;;;;;;;12.77;6.75;;;;;;;9.21;46.85;100227.00;4824902;29;20050;-64
2022/03/09 10:02:07;;;;;;;11.13;7.45;;;;;;;9.25;46.99;100231.31;4824867;29;20107;-64
2022/03/09 10:04:39;;;;;;;;;;;;;;;9.34;46.98;100228.88;4808891;29;20052;-63
2022/03/09 10:07:09;;;;;;;13.73;7.22;;;;;;;9.33;46.16;100232.25;4825061;29;20393;-63
2022/03/09 10:09:38;;;;;;;13.15;7.03;;;;;;;8.91;47.50;100216.41;4824957;29;20081;-64
2022/03/09 10:12:09;;;;;;;12.85;8.02;;;;;;;8.86;46.92;100222.25;4825097;29;20058;-63
2022/03/09 10:14:44;;;;;;;12.27;6.97;;;;;;;8.91;47.58;100224.03;4808169;29;20098;-63
2022/03/09 10:17:14;;;;;;;11.75;7.00;;;;;;;9.06;47.82;100220.88;4824939;29;20118;-63
2022/03/09 10:19:50;;;;;;;14.77;7.63;;;;;;;8.98;47.38;100213.13;4824738;29;20054;-63
2022/03/09 10:22:31;;;;;;;12.43;7.40;;;;;;;9.05;47.72;100214.91;4824433;29;20046;-63
2022/03/09 10:25:23;;;;;;;11.27;6.70;;;;;;;9.12;47.57;100215.84;4824519;29;20073;-64
2022/03/09 10:27:53;;;;;;;13.88;7.63;;;;;;;9.11;47.08;100215.00;4824529;29;20050;-63
2022/03/09 10:30:23;;;;;;;;;;;;;;;9.51;47.66;100212.94;4825310;29;20570;-64
2022/03/09 10:32:54;;;;;;;11.97;6.60;;;;;;;9.75;47.13;100205.59;4848892;29;20264;-64
2022/03/09 10:35:43;;;;;;;15.25;6.93;;;;;;;9.65;46.88;100203.78;4850048;29;20435;-64
2022/03/09 10:38:27;;;;;;;10.13;6.30;;;;;;;9.61;46.39;100199.50;4847431;29;20073;-64
2022/03/09 10:41:05;;;;;;;10.48;6.45;;;;;;;9.37;46.41;100187.31;4841743;29;20077;-63
2022/03/09 10:43:34;;;;;;;10.02;6.43;;;;;;;9.48;46.49;100200.19;4824279;29;20057;-63
2022/03/09 10:46:07;;;;;;;12.27;7.07;;;;;;;9.80;46.52;100193.75;4824441;29;20047;-63
2022/03/09 10:48:52;;;;;;;15.77;6.18;;;;;;;9.89;46.25;100193.84;4824471;29;20061;-63
2022/03/09 10:51:32;;;;;;;10.75;6.53;;;;;;;10.18;46.01;100189.91;4824602;29;20589;-64
2022/03/09 10:54:03;;;;;;;11.57;6.72;;;;;;;10.24;45.82;100192.53;4824271;29;20058;-63
2022/03/09 10:56:33;;;;;;;14.63;7.28;;;;;;;10.19;45.27;100189.09;4824188;29;20054;-63
2022/03/09 10:59:09;;;;;;;;;;;;;;;10.12;45.02;100187.31;4839562;29;20046;-66
2022/03/09 11:01:39;;;;;;;10.50;6.30;;;;;;;10.23;44.89;100170.41;4833108;29;19958;-64
2022/03/09 11:04:18;;;;;;;10.60;5.82;;;;;;;10.43;44.77;100189.28;4845911;29;20078;-64
2022/03/09 11:06:49;;;;;;;11.32;6.15;;;;;;;10.21;44.00;100172.09;4845762;29;20501;-64
2022/03/09 11:09:19;;;;;;;12.98;6.20;;;;;;;10.21;44.79;100182.28;4840483;29;20046;-64
2022/03/09 11:11:49;;;;;;;10.40;5.90;;;;;;;10.21;44.25;100174.66;4844936;29;20512;-64
2022/03/09 11:14:20;;;;;;;10.88;6.25;;;;;;;10.65;43.81;100168.16;4845519;29;20058;-64
2022/03/09 11:16:49;;;;;;;10.55;5.82;;;;;;;11.10;43.93;100164.19;4846014;29;20077;-64
2022/03/09 11:19:20;;;;;;;12.75;6.50;;;;;;;11.13;43.55;100159.94;4845752;29;20046;-61
2022/03/09 11:21:50;;;;;;;10.25;5.63;;;;;;;11.23;43.19;100155.72;4846256;29;20057;-62
2022/03/09 11:24:20;;;;;;;10.10;5.47;;;;;;;11.17;43.33;100148.03;4864398;29;20492;-61
2022/03/09 11:26:51;;;;;;;9.40;5.63;;;;;;;11.16;42.84;100153.97;4850456;29;20421;-62
2022/03/09 11:29:33;;;;;;;12.15;5.80;;;;;;;11.25;42.68;100154.88;4850814;29;20133;-61
2022/03/09 11:32:04;;;;;;;11.63;5.78;;;;;;;11.31;43.05;100146.38;4845356;29;20058;-61
2022/03/09 11:34:41;;;;;;;9.10;6.00;;;;;;;11.72;41.84;100157.63;4845851;29;20049;-61
2022/03/09 11:37:13;;;;;;;9.45;5.63;;;;;;;11.59;41.19;100150.72;4845613;29;20046;-64
2022/03/09 11:39:43;;;;;;;9.90;5.65;;;;;;;11.32;41.25;100130.22;4829194;29;20507;-64
2022/03/09 11:42:28;;;;;;;12.93;6.10;;;;;;;11.33;41.40;100137.00;4845367;29;20050;-64